Time;durP1;ratioP1;P1;durP2;ratioP2;P2;SDS_P1;SDS_P2;PMS_P1;PMS_P2;Temp;Humidity;BMP_temperature;BMP_pressure;BME280_temperature;BME280_humidity;BME280_pressure;Samples;Min_cycle;Max_cycle;Signal;HPM_P1;HPM_P2
2022/05/10 00:01:33;;;;;;;9.35;7.20;;;25.30;99.90;;;;;;5070999;28;20075;-45
2022/05/10 00:04:01;;;;;;;7.75;6.05;;;25.30;99.90;;;;;;5071326;28;20025;-46
2022/05/10 00:06:33;;;;;;;11.02;7.28;;;25.30;99.90;;;;;;5070112;28;20033;-47
2022/05/10 00:08:59;;;;;;;10.07;6.75;;;25.30;99.90;;;;;;5071444;28;20017;-46
2022/05/10 00:11:25;;;;;;;9.88;6.68;;;25.30;99.90;;;;;;5071409;28;20024;-47
2022/05/10 00:13:51;;;;;;;11.13;6.57;;;25.30;99.90;;;;;;5071119;28;20511;-46
2022/05/10 00:16:20;;;;;;;8.77;6.68;;;25.30;99.90;;;;;;5071079;28;20049;-47
2022/05/10 00:18:47;;;;;;;9.23;6.72;;;25.30;99.90;;;;;;5070899;28;20064;-46
2022/05/10 00:21:17;;;;;;;9.18;6.70;;;25.30;99.90;;;;;;5071144;28;20023;-46
2022/05/10 00:23:43;;;;;;;9.40;6.85;;;25.30;99.90;;;;;;5071041;28;20111;-46
2022/05/10 00:26:09;;;;;;;8.75;6.47;;;25.30;99.90;;;;;;5071059;28;20060;-47
2022/05/10 00:28:34;;;;;;;9.48;6.35;;;25.30;99.90;;;;;;5070747;28;20021;-47
2022/05/10 00:31:00;;;;;;;9.55;6.97;;;25.20;99.90;;;;;;5071149;28;20021;-47
2022/05/10 00:33:29;;;;;;;10.27;6.88;;;25.30;99.90;;;;;;5071080;28;20029;-46
2022/05/10 00:35:56;;;;;;;8.63;6.57;;;25.20;99.90;;;;;;5071025;28;20017;-46
2022/05/10 00:38:26;;;;;;;8.10;6.80;;;25.20;99.90;;;;;;5070738;28;20082;-46
2022/05/10 00:40:52;;;;;;;8.98;6.57;;;25.20;99.90;;;;;;5070835;28;20462;-47
2022/05/10 00:43:24;;;;;;;10.27;6.68;;;25.20;99.90;;;;;;5070897;28;20100;-46
2022/05/10 00:45:56;;;;;;;9.00;5.82;;;25.20;99.90;;;;;;5070786;28;20051;-47
2022/05/10 00:48:50;;;;;;;8.82;6.60;;;25.20;99.90;;;;;;5070863;28;20029;-47
2022/05/10 00:51:27;;;;;;;8.40;6.13;;;25.20;99.90;;;;;;5070700;28;20047;-47
2022/05/10 00:54:04;;;;;;;8.48;6.38;;;25.20;99.90;;;;;;5070825;28;20488;-46
2022/05/10 00:56:48;;;;;;;9.30;6.93;;;25.20;99.90;;;;;;5070969;28;20028;-46
2022/05/10 00:59:26;;;;;;;8.57;6.47;;;25.20;99.90;;;;;;5081724;22;20013;-55
2022/05/10 01:01:59;;;;;;;10.15;6.57;;;25.20;99.90;;;;;;5050697;28;20033;-56
2022/05/10 01:04:51;;;;;;;8.40;5.88;;;25.20;99.90;;;;;;5049209;28;20026;-55
2022/05/10 01:07:26;;;;;;;7.43;5.82;;;25.20;99.90;;;;;;5050151;28;20423;-55
2022/05/10 01:09:54;;;;;;;8.30;6.18;;;25.20;99.90;;;;;;5053699;28;20102;-55
2022/05/10 01:12:35;;;;;;;8.32;6.50;;;25.20;99.90;;;;;;5054255;28;20411;-56
2022/05/10 01:15:05;;;;;;;8.52;5.18;;;25.20;99.90;;;;;;5053141;28;20021;-55
2022/05/10 01:17:31;;;;;;;7.65;5.60;;;25.20;99.90;;;;;;5054413;28;20021;-56
2022/05/10 01:19:57;;;;;;;9.35;6.38;;;25.20;99.90;;;;;;5053869;28;20132;-55
2022/05/10 01:23:00;;;;;;;10.23;6.60;;;25.20;99.90;;;;;;5053937;28;20140;-55
2022/05/10 01:25:32;;;;;;;8.32;5.63;;;25.20;99.90;;;;;;5053961;28;20021;-55
2022/05/10 01:28:12;;;;;;;8.30;5.72;;;25.20;99.90;;;;;;5053839;28;20108;-55
2022/05/10 01:30:38;;;;;;;6.45;5.40;;;25.20;99.90;;;;;;5053819;28;20063;-55
2022/05/10 01:36:05;;;;;;;7.15;5.32;;;25.20;99.90;;;;;;5053727;28;20453;-55
2022/05/10 01:38:40;;;;;;;8.30;6.03;;;25.20;99.90;;;;;;5053801;28;20029;-55
2022/05/10 01:41:09;;;;;;;5.30;4.18;;;25.20;99.90;;;;;;5053505;28;20056;-56
2022/05/10 01:43:35;;;;;;;7.05;5.38;;;25.20;99.90;;;;;;5053695;28;20028;-55
2022/05/10 01:46:09;;;;;;;6.60;5.38;;;25.20;99.90;;;;;;5053588;28;20120;-53
2022/05/10 01:48:38;;;;;;;6.88;5.43;;;25.10;99.90;;;;;;5053544;28;20048;-53
2022/05/10 01:51:17;;;;;;;6.03;5.32;;;25.20;99.90;;;;;;5053631;28;20033;-55
2022/05/10 01:53:44;;;;;;;6.28;4.97;;;25.20;99.90;;;;;;5053488;28;20045;-54
2022/05/10 01:56:14;;;;;;;7.35;5.55;;;25.20;99.90;;;;;;5053279;28;20036;-54
2022/05/10 01:58:43;;;;;;;7.88;5.38;;;25.10;99.90;;;;;;5053237;28;20039;-55
2022/05/10 02:01:19;;;;;;;6.30;4.65;;;25.10;99.90;;;;;;5104892;23;20052;-45
2022/05/10 02:03:45;;;;;;;7.27;4.77;;;25.10;99.90;;;;;;5093504;28;20020;-46
2022/05/10 02:06:20;;;;;;;6.47;4.95;;;25.10;99.90;;;;;;5093515;28;20494;-46
2022/05/10 02:08:55;;;;;;;7.63;5.43;;;25.20;99.90;;;;;;5075157;28;20021;-45
2022/05/10 02:11:22;;;;;;;7.70;4.82;;;25.10;99.90;;;;;;5093673;28;20040;-46
2022/05/10 02:13:56;;;;;;;6.80;4.93;;;25.10;99.90;;;;;;5093443;28;20012;-46
2022/05/10 02:16:32;;;;;;;6.45;5.05;;;25.10;99.90;;;;;;5093324;28;20048;-45
2022/05/10 02:19:06;;;;;;;7.00;5.07;;;25.10;99.90;;;;;;5093237;28;20028;-46
2022/05/10 02:21:42;;;;;;;7.00;5.60;;;25.10;99.90;;;;;;5092486;28;20051;-45
2022/05/10 02:24:43;;;;;;;6.82;5.10;;;25.10;99.90;;;;;;5093262;28;20484;-46
2022/05/10 02:27:36;;;;;;;7.20;5.10;;;25.10;99.90;;;;;;5089848;28;20036;-45
2022/05/10 02:30:12;;;;;;;5.95;4.80;;;25.10;99.90;;;;;;5092855;28;20028;-45
2022/05/10 02:33:07;;;;;;;6.35;5.38;;;25.10;99.90;;;;;;5092880;28;20305;-46
2022/05/10 02:35:49;;;;;;;8.30;5.25;;;25.10;99.90;;;;;;5074715;28;20479;-46
2022/05/10 02:38:25;;;;;;;6.65;4.72;;;25.10;99.90;;;;;;5092818;28;20035;-46
2022/05/10 02:40:53;;;;;;;8.52;5.55;;;25.10;99.90;;;;;;5093095;28;20032;-46
2022/05/10 02:43:32;;;;;;;7.00;5.32;;;25.10;99.90;;;;;;5093003;28;20016;-45
2022/05/10 02:45:58;;;;;;;6.25;5.03;;;25.10;99.90;;;;;;5092675;28;20028;-46
2022/05/10 02:48:28;;;;;;;7.03;5.30;;;25.10;99.90;;;;;;5092659;28;20487;-46
2022/05/10 02:50:54;;;;;;;6.18;5.10;;;25.10;99.90;;;;;;5092805;28;20085;-46
2022/05/10 02:53:20;;;;;;;5.68;4.57;;;25.10;99.90;;;;;;5092977;28;20101;-45
2022/05/10 02:55:57;;;;;;;6.78;5.25;;;25.10;99.90;;;;;;5092439;28;20063;-49
2022/05/10 02:58:47;;;;;;;6.25;5.20;;;25.00;99.90;;;;;;5092646;28;20402;-46
2022/05/10 03:01:34;;;;;;;6.28;4.95;;;25.10;99.90;;;;;;5092788;28;20052;-46
2022/05/10 03:04:02;;;;;;;6.22;5.07;;;25.00;99.90;;;;;;5092306;28;20020;-45
2022/05/10 03:06:28;;;;;;;6.53;4.95;;;25.00;99.90;;;;;;5092461;28;20028;-47
2022/05/10 03:08:56;;;;;;;5.70;4.43;;;25.00;99.90;;;;;;5092371;28;20020;-47
2022/05/10 03:11:22;;;;;;;;;;;25.00;99.90;;;;;;5092951;28;20035;-46
2022/05/10 03:13:48;;;;;;;6.25;4.97;;;25.00;99.90;;;;;;5091932;28;19927;-46
2022/05/10 03:16:16;;;;;;;7.05;4.72;;;25.00;99.90;;;;;;5092072;28;20031;-46
2022/05/10 03:18:43;;;;;;;5.53;4.43;;;25.00;99.90;;;;;;5073807;28;20115;-46
2022/05/10 03:21:09;;;;;;;6.03;4.63;;;25.00;99.90;;;;;;5092212;28;20471;-46
2022/05/10 03:23:35;;;;;;;6.25;4.65;;;25.00;99.90;;;;;;5091987;28;20031;-46
2022/05/10 03:26:01;;;;;;;5.95;4.85;;;25.00;99.90;;;;;;5091919;28;20443;-46
2022/05/10 03:28:27;;;;;;;6.07;4.68;;;25.00;99.90;;;;;;5091871;28;20039;-46
2022/05/10 03:30:55;;;;;;;6.10;4.68;;;25.00;99.90;;;;;;5092142;28;20028;-46
2022/05/10 03:33:21;;;;;;;5.05;4.55;;;25.00;99.90;;;;;;5090911;28;20093;-46
2022/05/10 03:35:47;;;;;;;5.57;4.50;;;25.00;99.90;;;;;;5091751;28;20484;-47
2022/05/10 03:38:13;;;;;;;6.05;4.90;;;25.00;99.90;;;;;;5091681;28;20047;-46
2022/05/10 03:40:39;;;;;;;5.88;4.32;;;25.00;99.90;;;;;;5091527;28;20047;-46
2022/05/10 03:43:10;;;;;;;5.00;4.10;;;25.00;99.90;;;;;;5091756;28;20097;-46
2022/05/10 03:45:36;;;;;;;6.50;4.50;;;25.00;99.90;;;;;;5091603;28;20016;-46
2022/05/10 03:48:02;;;;;;;6.47;5.00;;;25.00;99.90;;;;;;5091723;28;20055;-47
2022/05/10 03:50:28;;;;;;;6.28;4.90;;;25.00;99.90;;;;;;5091591;28;20024;-46
2022/05/10 03:52:54;;;;;;;5.32;4.47;;;25.00;99.90;;;;;;5091741;28;20367;-46
2022/05/10 03:55:24;;;;;;;4.80;4.15;;;25.00;99.90;;;;;;5091510;28;20020;-46
2022/05/10 03:57:51;;;;;;;5.97;4.68;;;25.00;99.90;;;;;;5091614;28;20103;-47
2022/05/10 04:00:29;;;;;;;6.35;4.35;;;25.00;99.90;;;;;;5070335;28;20518;-46
2022/05/10 04:02:57;;;;;;;5.28;4.25;;;25.00;99.90;;;;;;5071431;28;20024;-46
2022/05/10 04:05:25;;;;;;;6.18;4.53;;;25.00;99.90;;;;;;5071560;28;20032;-46
2022/05/10 04:07:51;;;;;;;4.70;3.63;;;25.00;99.90;;;;;;5071160;28;20021;-46
2022/05/10 04:10:18;;;;;;;4.43;3.97;;;25.00;99.90;;;;;;5071425;28;20021;-47
2022/05/10 04:12:44;;;;;;;;;;;25.00;99.90;;;;;;5071451;28;20032;-47
2022/05/10 04:15:14;;;;;;;5.82;4.55;;;25.00;99.90;;;;;;5071026;28;20368;-46
2022/05/10 04:17:59;;;;;;;5.15;4.63;;;25.00;99.90;;;;;;5069905;28;20036;-46
2022/05/10 04:20:24;;;;;;;6.03;4.20;;;24.90;99.90;;;;;;5071161;28;20037;-46
2022/05/10 04:22:50;;;;;;;6.18;5.03;;;24.90;99.90;;;;;;5071006;28;20039;-46
2022/05/10 04:25:23;;;;;;;4.82;4.10;;;24.90;99.90;;;;;;5071023;28;20035;-46
2022/05/10 04:27:51;;;;;;;5.63;4.53;;;24.90;99.90;;;;;;5070889;28;20543;-45
2022/05/10 04:30:17;;;;;;;5.18;4.20;;;24.90;99.90;;;;;;5070762;28;20025;-46
2022/05/10 04:32:43;;;;;;;6.10;4.13;;;24.90;99.90;;;;;;5070840;28;20111;-46
2022/05/10 04:35:10;;;;;;;4.65;4.18;;;24.90;99.90;;;;;;5070938;28;20020;-46
2022/05/10 04:37:36;;;;;;;4.93;4.00;;;24.90;99.90;;;;;;5070879;28;20023;-46
2022/05/10 04:43:05;;;;;;;6.55;4.22;;;24.90;99.90;;;;;;5071509;28;20039;-46
2022/05/10 04:45:32;;;;;;;4.57;4.10;;;24.90;99.90;;;;;;5074766;28;20029;-46
2022/05/10 04:47:58;;;;;;;4.53;3.92;;;24.90;99.90;;;;;;5075028;28;20024;-46
2022/05/10 04:50:24;;;;;;;5.63;4.22;;;24.90;99.90;;;;;;5074647;28;20152;-46
2022/05/10 04:52:50;;;;;;;4.18;3.75;;;24.90;99.90;;;;;;5074575;28;20031;-46
2022/05/10 04:55:16;;;;;;;5.30;3.90;;;24.90;99.90;;;;;;5074499;28;20025;-46
2022/05/10 04:57:42;;;;;;;4.88;4.00;;;24.90;99.90;;;;;;5074555;28;20467;-46
2022/05/10 05:00:10;;;;;;;5.07;3.63;;;24.90;99.90;;;;;;5081980;28;20044;-47
2022/05/10 05:02:36;;;;;;;5.53;4.30;;;24.80;99.90;;;;;;5076535;28;20020;-47
2022/05/10 05:05:03;;;;;;;5.22;3.97;;;24.80;99.90;;;;;;5094514;28;20025;-46
2022/05/10 05:07:29;;;;;;;4.10;3.60;;;24.90;99.90;;;;;;5094773;28;20024;-46
2022/05/10 05:09:55;;;;;;;4.82;3.92;;;24.80;99.90;;;;;;5094617;28;20039;-45
2022/05/10 05:12:22;;;;;;;4.53;3.53;;;24.80;99.90;;;;;;5094524;28;20022;-45
2022/05/10 05:14:48;;;;;;;3.72;3.25;;;24.80;99.90;;;;;;5076328;28;20123;-46
2022/05/10 05:17:14;;;;;;;4.70;3.65;;;24.80;99.90;;;;;;5094331;28;20044;-46
2022/05/10 05:19:40;;;;;;;6.72;4.10;;;24.80;99.90;;;;;;5094298;28;20492;-46
2022/05/10 05:22:06;;;;;;;6.55;4.25;;;24.80;99.90;;;;;;5094411;28;20104;-46
2022/05/10 05:24:31;;;;;;;6.97;4.10;;;24.80;99.90;;;;;;5094183;28;20108;-47
2022/05/10 05:26:57;;;;;;;5.28;3.70;;;24.80;99.90;;;;;;5094444;28;20103;-47
2022/05/10 05:29:24;;;;;;;5.75;3.70;;;24.80;99.90;;;;;;5094071;28;20035;-46
2022/05/10 05:31:51;;;;;;;5.38;4.00;;;24.80;99.90;;;;;;5094083;28;20391;-47
2022/05/10 05:34:17;;;;;;;5.47;4.47;;;24.80;99.90;;;;;;5094136;28;20463;-46
2022/05/10 05:37:32;;;;;;;6.70;4.00;;;24.80;99.90;;;;;;5075925;28;20180;-46
2022/05/10 05:39:29;;;;;;;5.00;3.63;;;24.80;99.90;;;;;;5093862;28;20040;-46
2022/05/10 05:41:55;;;;;;;5.97;4.50;;;24.80;99.90;;;;;;5093972;28;20047;-47
2022/05/10 05:44:23;;;;;;;5.80;4.18;;;24.80;99.90;;;;;;5093919;28;20028;-46
2022/05/10 05:46:49;;;;;;;4.90;4.00;;;24.80;99.90;;;;;;5093901;28;20028;-46
2022/05/10 05:49:15;;;;;;;4.78;3.90;;;24.80;99.90;;;;;;5093737;28;20073;-46
2022/05/10 05:51:41;;;;;;;5.72;3.60;;;24.80;99.90;;;;;;5093687;28;20023;-46
2022/05/10 05:54:09;;;;;;;4.65;3.78;;;24.80;99.90;;;;;;5093505;28;20035;-46
2022/05/10 05:56:35;;;;;;;5.13;3.95;;;24.80;99.90;;;;;;5092534;28;20024;-46
2022/05/10 05:59:01;;;;;;;4.85;4.20;;;24.80;99.90;;;;;;5075547;28;20059;-47
2022/05/10 06:01:27;;;;;;;6.63;4.35;;;24.80;99.90;;;;;;5093445;28;20043;-46
2022/05/10 06:03:55;;;;;;;4.78;4.15;;;24.80;99.90;;;;;;5093450;28;20758;-47
2022/05/10 06:06:21;;;;;;;5.38;4.13;;;24.80;99.90;;;;;;5093537;28;20054;-46
2022/05/10 06:08:47;;;;;;;5.55;4.22;;;24.80;99.90;;;;;;5093350;28;20020;-47
2022/05/10 06:11:14;;;;;;;5.93;4.00;;;24.80;99.90;;;;;;5093320;28;20402;-47
2022/05/10 06:13:40;;;;;;;5.33;4.53;;;24.80;99.90;;;;;;5093212;28;20020;-46
2022/05/10 06:16:07;;;;;;;5.20;4.00;;;24.80;99.90;;;;;;5093078;28;20024;-47
2022/05/10 06:18:34;;;;;;;5.65;4.00;;;24.80;99.90;;;;;;5093287;28;20031;-47
2022/05/10 06:21:00;;;;;;;5.70;4.28;;;24.80;99.90;;;;;;5093328;28;20035;-47
2022/05/10 06:23:44;;;;;;;5.65;4.47;;;24.80;99.90;;;;;;5092929;28;20077;-46
2022/05/10 06:26:10;;;;;;;5.82;4.30;;;24.80;99.90;;;;;;5093097;28;20052;-46
2022/05/10 06:28:37;;;;;;;5.80;4.05;;;24.80;99.90;;;;;;5092774;28;20467;-46
2022/05/10 06:31:06;;;;;;;6.03;4.40;;;24.80;99.90;;;;;;5093104;28;20085;-46
2022/05/10 06:33:32;;;;;;;5.35;4.20;;;24.80;99.90;;;;;;5093051;28;20035;-46
2022/05/10 06:35:58;;;;;;;5.20;4.20;;;24.80;99.90;;;;;;5092879;28;20088;-46
2022/05/10 06:38:30;;;;;;;5.28;3.92;;;24.80;99.90;;;;;;5092754;28;20518;-46
2022/05/10 06:41:00;;;;;;;6.07;4.13;;;24.80;99.90;;;;;;5092510;28;20098;-47
2022/05/10 06:43:26;;;;;;;5.35;4.50;;;24.80;99.90;;;;;;5092473;28;20035;-47
2022/05/10 06:45:53;;;;;;;5.63;4.75;;;24.80;99.90;;;;;;5092407;28;20111;-47
2022/05/10 06:48:19;;;;;;;;;;;24.90;99.90;;;;;;5093034;28;20024;-46
2022/05/10 06:50:45;;;;;;;4.57;3.75;;;24.90;99.90;;;;;;5092466;28;20398;-46
2022/05/10 06:53:12;;;;;;;6.20;4.95;;;24.90;99.90;;;;;;5092271;28;20388;-46
2022/05/10 06:55:38;;;;;;;5.80;4.30;;;24.90;99.90;;;;;;5092428;28;20031;-46
2022/05/10 06:58:04;;;;;;;6.80;4.30;;;24.90;99.90;;;;;;5092466;28;20034;-46
2022/05/10 07:00:33;;;;;;;6.63;4.95;;;24.90;99.90;;;;;;5092001;28;20044;-46
2022/05/10 07:03:03;;;;;;;6.22;4.07;;;24.90;99.90;;;;;;5092274;28;20036;-46
2022/05/10 07:05:28;;;;;;;5.35;4.25;;;24.90;99.90;;;;;;5092146;28;20134;-47
2022/05/10 07:07:54;;;;;;;6.53;4.75;;;24.90;99.90;;;;;;5092018;28;20031;-47
2022/05/10 07:10:20;;;;;;;5.65;4.95;;;24.90;99.90;;;;;;5092106;28;20047;-47
2022/05/10 07:12:46;;;;;;;6.32;5.07;;;24.90;99.90;;;;;;5091950;28;20020;-46
2022/05/10 07:15:18;;;;;;;7.72;5.45;;;24.90;99.90;;;;;;5091984;28;20093;-46
2022/05/10 07:17:44;;;;;;;6.60;4.63;;;24.90;99.90;;;;;;5092046;28;20027;-46
2022/05/10 07:20:12;;;;;;;6.28;4.63;;;24.90;99.90;;;;;;5091802;28;20399;-46
2022/05/10 07:22:38;;;;;;;8.95;4.50;;;24.90;99.90;;;;;;5091984;28;20529;-46
2022/05/10 07:25:05;;;;;;;7.15;4.70;;;24.90;99.90;;;;;;5091969;28;20063;-47
2022/05/10 07:27:31;;;;;;;7.15;4.78;;;24.90;99.90;;;;;;5091714;28;20054;-46
2022/05/10 07:29:57;;;;;;;5.68;5.07;;;24.90;99.90;;;;;;5091646;28;20523;-47
2022/05/10 07:32:24;;;;;;;6.40;4.97;;;25.00;99.90;;;;;;5091682;28;20070;-46
2022/05/10 07:35:09;;;;;;;5.10;4.57;;;24.90;99.90;;;;;;5091775;28;20055;-46
2022/05/10 07:37:35;;;;;;;7.15;5.15;;;24.90;99.90;;;;;;5091806;28;20024;-46
2022/05/10 07:40:02;;;;;;;7.20;5.25;;;24.90;99.90;;;;;;5091653;28;20115;-46
2022/05/10 07:42:28;;;;;;;6.13;5.13;;;24.90;99.90;;;;;;5091661;28;20048;-46
2022/05/10 07:44:54;;;;;;;5.40;3.88;;;24.90;99.90;;;;;;5073376;28;20063;-47
2022/05/10 07:47:20;;;;;;;6.40;5.03;;;24.90;99.90;;;;;;5073405;28;20503;-47
2022/05/10 07:49:46;;;;;;;5.72;4.55;;;24.90;99.90;;;;;;5091541;28;20028;-46
2022/05/10 07:52:14;;;;;;;5.45;4.55;;;24.90;99.90;;;;;;5091432;28;20380;-46
2022/05/10 07:54:39;;;;;;;;;;;24.90;99.90;;;;;;5091798;28;20443;-46
2022/05/10 07:57:05;;;;;;;6.05;4.65;;;25.00;99.90;;;;;;5091711;28;19938;-46
2022/05/10 07:59:31;;;;;;;6.13;4.53;;;24.90;99.90;;;;;;5091163;28;20073;-46
2022/05/10 08:01:58;;;;;;;5.35;4.57;;;24.90;99.90;;;;;;5091245;28;20081;-46
2022/05/10 08:04:24;;;;;;;6.10;4.50;;;24.90;99.90;;;;;;5091321;28;20030;-46
2022/05/10 08:06:50;;;;;;;7.22;4.57;;;24.90;99.90;;;;;;5073074;28;20268;-46
2022/05/10 08:09:16;;;;;;;7.18;5.13;;;24.90;99.90;;;;;;5091296;28;20119;-46
2022/05/10 08:11:43;;;;;;;5.70;4.70;;;24.90;99.90;;;;;;5091230;28;20439;-46
2022/05/10 08:14:28;;;;;;;5.83;4.67;;;24.90;99.90;;;;;;5091341;28;20165;-46
2022/05/10 08:16:53;;;;;;;6.53;5.30;;;25.00;99.90;;;;;;5091206;28;20024;-46
2022/05/10 08:19:19;;;;;;;7.75;5.22;;;24.90;99.90;;;;;;5093714;28;20047;-46
2022/05/10 08:21:45;;;;;;;6.65;5.35;;;25.00;99.90;;;;;;5095405;28;20107;-45
2022/05/10 08:24:11;;;;;;;5.78;4.78;;;25.00;99.90;;;;;;5095431;28;20391;-45
2022/05/10 08:26:37;;;;;;;4.97;4.28;;;25.00;99.90;;;;;;5095370;28;20383;-45
2022/05/10 08:29:03;;;;;;;5.50;4.70;;;25.00;99.90;;;;;;5095298;28;20020;-45
2022/05/10 08:31:29;;;;;;;6.82;4.30;;;25.00;99.90;;;;;;5095303;28;20020;-45
2022/05/10 08:33:54;;;;;;;6.60;4.90;;;25.00;99.90;;;;;;5095046;28;20020;-45
2022/05/10 08:36:21;;;;;;;6.32;4.88;;;25.00;99.90;;;;;;5095002;28;20032;-46
2022/05/10 08:38:47;;;;;;;5.67;4.37;;;25.00;99.90;;;;;;5095100;28;20028;-46
2022/05/10 08:41:32;;;;;;;7.28;4.93;;;25.00;99.90;;;;;;5095067;28;20387;-46
2022/05/10 08:44:12;;;;;;;6.40;4.68;;;25.00;99.90;;;;;;5094987;28;20028;-45
2022/05/10 08:46:43;;;;;;;6.30;4.55;;;25.10;99.90;;;;;;5094996;28;20013;-46
2022/05/10 08:49:34;;;;;;;5.97;4.35;;;25.10;99.90;;;;;;5095014;28;20081;-46
2022/05/10 08:52:00;;;;;;;6.53;4.78;;;25.10;99.90;;;;;;5085824;28;20055;-47
2022/05/10 08:54:29;;;;;;;5.20;4.50;;;25.10;99.90;;;;;;5094849;28;20052;-46
2022/05/10 08:57:00;;;;;;;5.50;4.35;;;25.10;99.90;;;;;;5094725;28;20020;-46
2022/05/10 08:59:42;;;;;;;6.10;4.70;;;25.20;99.90;;;;;;5094502;28;20036;-46
2022/05/10 09:02:24;;;;;;;5.20;4.35;;;25.10;99.90;;;;;;5094840;28;20040;-47
2022/05/10 09:05:02;;;;;;;5.85;4.38;;;25.10;99.90;;;;;;5094572;28;20051;-47
2022/05/10 09:07:38;;;;;;;5.40;3.80;;;25.10;99.90;;;;;;5094477;28;20479;-47
2022/05/10 09:10:12;;;;;;;6.30;3.93;;;25.10;99.90;;;;;;5094441;28;20055;-47
2022/05/10 09:12:58;;;;;;;6.57;4.80;;;25.20;99.90;;;;;;5094357;28;20383;-47
2022/05/10 09:15:27;;;;;;;5.30;4.15;;;25.10;99.90;;;;;;5076120;28;20024;-47
2022/05/10 09:17:53;;;;;;;5.57;4.85;;;25.20;99.90;;;;;;5094243;28;20099;-47
2022/05/10 09:20:38;;;;;;;7.65;4.45;;;25.20;99.90;;;;;;5094236;28;20119;-47
2022/05/10 09:23:14;;;;;;;5.25;4.30;;;25.20;99.90;;;;;;5094293;28;20471;-47
2022/05/10 09:25:43;;;;;;;6.03;4.88;;;25.20;99.90;;;;;;5094457;28;20028;-47
2022/05/10 09:28:22;;;;;;;6.72;4.60;;;25.20;99.90;;;;;;5094313;28;20031;-47
2022/05/10 09:36:29;;;;;;;6.10;4.60;;;25.20;99.90;;;;;;5094244;28;20362;-47
2022/05/10 09:39:15;;;;;;;5.72;4.38;;;25.20;99.90;;;;;;5093927;28;20040;-47
2022/05/10 09:41:46;;;;;;;5.75;4.63;;;25.20;99.90;;;;;;5093917;28;20433;-47
2022/05/10 09:44:36;;;;;;;5.82;4.35;;;25.20;99.90;;;;;;5094044;28;20386;-47
2022/05/10 09:47:18;;;;;;;5.75;4.13;;;25.20;99.90;;;;;;5093745;28;20077;-47
2022/05/10 09:49:44;;;;;;;4.93;3.95;;;25.20;99.90;;;;;;5093937;28;20110;-47
2022/05/10 09:52:23;;;;;;;4.68;4.28;;;25.20;99.90;;;;;;5093874;28;20111;-47
2022/05/10 09:54:53;;;;;;;4.78;4.38;;;25.20;99.90;;;;;;5093646;28;20032;-47
2022/05/10 09:57:33;;;;;;;4.55;4.15;;;25.20;99.90;;;;;;5093618;28;20433;-47
2022/05/10 09:59:59;;;;;;;5.90;4.70;;;25.20;99.90;;;;;;5093244;28;20075;-47
2022/05/10 10:02:37;;;;;;;5.75;4.40;;;25.20;99.90;;;;;;5093556;28;20543;-47
2022/05/10 10:05:20;;;;;;;6.13;4.55;;;25.20;99.90;;;;;;5093356;28;20494;-46
2022/05/10 10:07:54;;;;;;;5.53;4.72;;;25.30;99.90;;;;;;5093669;28;20442;-47
2022/05/10 10:10:35;;;;;;;5.22;4.20;;;25.30;99.90;;;;;;5093302;28;20034;-47
2022/05/10 10:13:24;;;;;;;4.78;4.07;;;25.30;99.90;;;;;;5093285;28;20028;-47
2022/05/10 10:15:50;;;;;;;6.25;4.40;;;25.30;99.90;;;;;;5083530;28;20032;-47
2022/05/10 10:18:44;;;;;;;4.80;4.03;;;25.30;99.90;;;;;;5093316;28;20028;-47
2022/05/10 10:21:20;;;;;;;5.35;4.03;;;25.30;99.90;;;;;;5093142;28;20491;-47
2022/05/10 10:23:56;;;;;;;4.68;4.18;;;25.30;99.90;;;;;;5093300;28;20133;-47
2022/05/10 10:26:45;;;;;;;5.05;4.28;;;25.30;99.90;;;;;;5092991;28;20098;-47
2022/05/10 10:29:16;;;;;;;4.82;3.80;;;25.30;99.90;;;;;;5092727;28;20027;-47
2022/05/10 10:31:52;;;;;;;4.28;3.88;;;25.30;99.90;;;;;;5092766;28;20371;-47
2022/05/10 10:34:51;;;;;;;5.32;3.75;;;25.30;99.90;;;;;;5092947;28;20153;-47
2022/05/10 10:37:20;;;;;;;6.10;4.22;;;25.30;99.90;;;;;;5089701;28;20435;-47
2022/05/10 10:40:09;;;;;;;4.82;4.15;;;25.30;99.90;;;;;;5092729;28;20114;-47
2022/05/10 10:42:54;;;;;;;5.72;4.10;;;25.40;99.90;;;;;;5092255;28;20497;-47
2022/05/10 10:45:33;;;;;;;4.53;3.85;;;25.40;99.90;;;;;;5092529;28;20574;-47
2022/05/10 10:48:16;;;;;;;5.72;4.20;;;25.40;99.90;;;;;;5092565;28;20027;-47
2022/05/10 10:50:42;;;;;;;4.28;3.88;;;25.40;99.90;;;;;;5092376;28;20021;-46
2022/05/10 10:53:10;;;;;;;6.70;4.93;;;25.40;99.90;;;;;;5092550;28;20559;-47
2022/05/10 10:55:53;;;;;;;5.13;4.60;;;25.40;99.90;;;;;;5092260;28;20024;-46
2022/05/10 10:58:36;;;;;;;5.65;4.97;;;25.40;99.90;;;;;;5092527;28;20020;-47
2022/05/10 11:01:17;;;;;;;6.13;4.00;;;25.40;99.90;;;;;;5092161;28;20071;-47
2022/05/10 11:04:01;;;;;;;5.75;4.68;;;25.50;99.90;;;;;;5092407;28;20028;-47
2022/05/10 11:06:31;;;;;;;6.30;5.30;;;25.50;99.90;;;;;;5092109;28;20028;-46
2022/05/10 11:09:34;;;;;;;5.53;5.03;;;25.50;99.90;;;;;;5091937;28;20468;-46
2022/05/10 11:12:29;;;;;;;7.45;5.30;;;25.50;99.90;;;;;;5092055;28;20472;-46
2022/05/10 11:15:11;;;;;;;6.88;5.30;;;25.50;99.90;;;;;;5092200;28;20504;-46
2022/05/10 11:18:04;;;;;;;7.60;5.80;;;25.50;99.90;;;;;;5091980;28;20111;-47
2022/05/10 11:20:56;;;;;;;5.15;4.57;;;25.60;99.90;;;;;;5091760;28;20035;-46
2022/05/10 11:23:50;;;;;;;6.00;5.40;;;25.60;99.90;;;;;;5092001;28;20085;-46
2022/05/10 11:26:16;;;;;;;5.40;4.88;;;25.60;99.90;;;;;;5091468;28;20039;-47
2022/05/10 11:28:56;;;;;;;5.40;4.82;;;25.60;99.90;;;;;;5091589;28;20016;-46
2022/05/10 11:31:31;;;;;;;7.25;6.20;;;25.60;99.90;;;;;;5091541;28;20169;-46
2022/05/10 11:34:12;;;;;;;8.43;6.85;;;25.60;99.90;;;;;;5091397;28;20024;-46
2022/05/10 11:36:41;;;;;;;5.82;5.22;;;25.60;99.90;;;;;;5091677;28;20223;-47
2022/05/10 11:39:31;;;;;;;6.20;5.20;;;25.60;99.90;;;;;;5091555;28;20016;-47
2022/05/10 11:42:18;;;;;;;6.57;5.82;;;25.60;99.90;;;;;;5091516;28;20024;-47
2022/05/10 11:45:03;;;;;;;7.97;6.10;;;25.60;99.90;;;;;;5091463;28;20024;-47
2022/05/10 11:47:35;;;;;;;8.13;7.07;;;25.70;99.90;;;;;;5091504;28;20028;-46
2022/05/10 11:50:29;;;;;;;7.53;6.70;;;25.70;99.90;;;;;;5091379;28;20459;-47
2022/05/10 11:53:19;;;;;;;7.13;5.55;;;25.60;99.90;;;;;;5090640;28;20375;-47
2022/05/10 11:56:02;;;;;;;7.78;6.82;;;25.70;99.90;;;;;;5091578;28;20046;-47
2022/05/10 12:02:01;;;;;;;7.15;6.47;;;25.70;99.90;;;;;;5091317;28;20101;-47
2022/05/10 12:04:44;;;;;;;8.02;6.47;;;25.70;99.90;;;;;;5087375;28;20119;-47
2022/05/10 12:07:24;;;;;;;7.22;6.13;;;25.70;99.90;;;;;;5091304;28;20036;-46
2022/05/10 12:09:55;;;;;;;8.25;6.68;;;25.70;99.90;;;;;;5091536;28;20375;-47
2022/05/10 12:12:33;;;;;;;9.05;7.70;;;25.70;99.90;;;;;;5091778;28;20048;-46
2022/05/10 12:21:22;;;;;;;10.27;8.73;;;25.70;99.90;;;;;;5091144;28;20428;-47
2022/05/10 12:24:25;;;;;;;8.30;6.82;;;25.70;99.90;;;;;;5091092;28;20422;-46
2022/05/10 12:26:53;;;;;;;8.63;7.70;;;25.70;99.90;;;;;;5091305;28;20515;-46
2022/05/10 12:29:55;;;;;;;10.35;8.50;;;25.80;99.90;;;;;;5091220;28;20384;-47
2022/05/10 12:32:38;;;;;;;8.85;7.82;;;25.70;99.90;;;;;;5090980;28;20039;-46
2022/05/10 12:35:06;;;;;;;8.77;6.72;;;25.80;99.90;;;;;;5090616;28;20098;-46
2022/05/10 12:37:52;;;;;;;9.55;7.75;;;25.80;99.90;;;;;;5090926;28;20359;-46
2022/05/10 12:40:31;;;;;;;8.18;7.20;;;25.80;99.90;;;;;;5090695;28;20032;-46
2022/05/10 12:43:28;;;;;;;8.27;7.25;;;25.80;99.90;;;;;;5090750;28;20100;-46
2022/05/10 12:46:06;;;;;;;7.97;6.88;;;25.80;99.90;;;;;;5090875;28;20020;-46
2022/05/10 12:49:03;;;;;;;8.68;6.70;;;25.80;99.90;;;;;;5090720;28;20406;-46
2022/05/10 12:51:32;;;;;;;8.00;6.85;;;25.80;99.90;;;;;;5090591;28;20438;-46
2022/05/10 12:53:59;;;;;;;7.82;6.93;;;25.80;99.90;;;;;;5090669;28;20032;-46
2022/05/10 12:56:37;;;;;;;7.75;6.82;;;25.80;99.90;;;;;;5090748;28;20107;-46
2022/05/10 12:59:28;;;;;;;7.82;6.80;;;25.80;99.90;;;;;;5090654;28;20081;-46
2022/05/10 13:01:57;;;;;;;9.25;7.32;;;25.90;99.90;;;;;;5090962;28;20503;-46
2022/05/10 13:04:29;;;;;;;7.25;6.35;;;25.90;99.90;;;;;;5091846;28;20038;-47
2022/05/10 13:07:04;;;;;;;8.88;7.63;;;25.90;99.90;;;;;;5094595;28;20024;-47
2022/05/10 13:09:50;;;;;;;7.35;6.63;;;25.90;99.90;;;;;;5094383;28;20016;-47
2022/05/10 13:12:20;;;;;;;7.43;6.68;;;25.90;99.90;;;;;;5094416;28;20028;-46
2022/05/10 13:14:52;;;;;;;9.10;7.35;;;25.90;99.90;;;;;;5094360;28;20042;-46
2022/05/10 13:17:28;;;;;;;8.05;7.10;;;25.90;99.90;;;;;;5094586;28;20374;-46
2022/05/10 13:19:54;;;;;;;9.52;7.22;;;25.90;99.90;;;;;;5094327;28;20036;-47
2022/05/10 13:22:21;;;;;;;8.90;7.35;;;25.90;99.90;;;;;;5094431;28;20478;-46
2022/05/10 13:24:49;;;;;;;6.68;5.97;;;26.00;99.90;;;;;;5094122;28;20047;-47
2022/05/10 13:27:43;;;;;;;8.50;6.70;;;25.90;99.90;;;;;;5094176;28;20475;-46
2022/05/10 13:30:18;;;;;;;7.80;6.85;;;25.90;99.90;;;;;;5091841;28;20040;-47
2022/05/10 13:32:50;;;;;;;9.38;6.65;;;25.90;99.90;;;;;;5094110;28;20030;-47
2022/05/10 13:35:19;;;;;;;9.57;8.00;;;26.00;99.90;;;;;;5094077;28;20103;-46
2022/05/10 13:38:05;;;;;;;9.00;7.40;;;26.00;99.90;;;;;;5093848;28;20023;-46